Hortonville, New York
Current Conditions -  °F | °C
As of 3:15 AM on Tuesday 21 Oct 2014 (Local Time) from KMSV Reporting Station
Broken Clouds Broken Clouds  
Wind Chill: 42°   Ceiling: 6000
Heat Index: 45°   Visibility: 10mi
Dew Point: 43°   Wind: 5mph
Humidity: 93%   Direction: 50°NE
Pressure: 29.9"   Gusts: NA
Location:  41.76°N, 75.03°W
Report Text: KMSV 210715Z AUTO 05004KT 10SM SCT049 BKN060 07/06 A2990 RMK AO1
Loading
Personal Weather Stations






























Interactive Weather Map
Tropical Storm Tracking
New forecast layout! Learn more

10-Day Weather Forecast

Advertisements
Track Severe Weather on mobile